Time,TemperatureF,DewpointF,PressureIn,WindDirection,WindDirectionDegrees,WindSpeedMPH,WindSpeedGustMPH,Humidity,HourlyPrecipIn,Conditions,Clouds,dailyrainin,SoftwareType,DateUTC
2013-12-26 00:02:00,25.7,14.1,30.17,SSE,157,3.7,-999.0,61,-99.99,,,0.00,Acu-Link.com,2013-12-26 05:02:00,
2013-12-26 00:17:00,25.9,14.0,30.16,ESE,112,5.3,-999.0,60,-99.99,,,0.00,Acu-Link.com,2013-12-26 05:17:00,
2013-12-26 00:33:00,26.1,14.1,30.16,North,0,4.7,-999.0,60,-99.99,,,0.00,Acu-Link.com,2013-12-26 05:33:00,
2013-12-26 00:50:00,26.1,14.1,30.15,WSW,247,7.3,-999.0,60,-99.99,,,0.00,Acu-Link.com,2013-12-26 05:50:00,
2013-12-26 01:09:00,26.1,15.3,30.15,SSW,202,7.3,-999.0,63,-99.99,,,0.00,Acu-Link.com,2013-12-26 06:09:00,
2013-12-26 08:24:00,23.0,20.3,30.06,SSE,157,0.0,-999.0,89,-99.99,,,0.00,Acu-Link.com,2013-12-26 13:24:00,
2013-12-26 08:40:00,23.7,20.7,30.06,SSE,157,0.0,-999.0,88,-99.99,,,0.00,Acu-Link.com,2013-12-26 13:40:00,
2013-12-26 08:55:00,24.8,21.5,30.05,NNE,22,1.7,-999.0,87,-99.99,,,0.00,Acu-Link.com,2013-12-26 13:55:00,
2013-12-26 09:10:00,25.2,21.6,30.04,SE,135,0.0,-999.0,86,-99.99,,,0.00,Acu-Link.com,2013-12-26 14:10:00,
2013-12-26 09:25:00,25.9,22.3,30.03,SE,135,0.0,-999.0,86,-99.99,,,0.00,Acu-Link.com,2013-12-26 14:25:00,
2013-12-26 09:40:00,26.1,22.2,30.03,ESE,112,0.0,-999.0,85,-99.99,,,0.00,Acu-Link.com,2013-12-26 14:40:00,
2013-12-26 09:55:00,26.8,22.6,30.03,ESE,112,2.2,-999.0,84,-99.99,,,0.00,Acu-Link.com,2013-12-26 14:55:00,
2013-12-26 10:10:00,27.0,22.5,30.03,SSE,157,2.7,-999.0,83,-99.99,,,0.00,Acu-Link.com,2013-12-26 15:10:00,
2013-12-26 10:26:00,27.3,22.8,30.02,SE,135,2.7,-999.0,83,-99.99,,,0.00,Acu-Link.com,2013-12-26 15:26:00,
2013-12-26 10:41:00,28.8,23.7,30.01,ESE,112,2.7,-999.0,81,-99.99,,,0.00,Acu-Link.com,2013-12-26 15:41:00,
2013-12-26 10:56:00,29.8,23.8,30.00,ESE,112,2.2,-999.0,78,-99.99,,,0.00,Acu-Link.com,2013-12-26 15:56:00,
2013-12-26 11:11:00,29.7,24.0,29.99,ESE,112,0.0,-999.0,79,-99.99,,,0.00,Acu-Link.com,2013-12-26 16:11:00,
2013-12-26 11:26:00,30.2,24.2,29.99,WNW,292,0.0,-999.0,78,-99.99,,,0.00,Acu-Link.com,2013-12-26 16:26:00,
2013-12-26 11:41:00,30.4,24.4,29.98,SSE,157,3.7,-999.0,78,-99.99,,,0.00,Acu-Link.com,2013-12-26 16:41:00,
2013-12-26 11:56:00,30.2,24.5,29.98,NE,45,0.0,-999.0,79,-99.99,,,0.00,Acu-Link.com,2013-12-26 16:56:00,
2013-12-26 12:11:00,31.1,25.1,30.00,SSW,202,2.2,-999.0,78,-99.99,,,0.00,Acu-Link.com,2013-12-26 17:11:00,
2013-12-26 12:26:00,31.8,25.4,30.01,SE,135,0.0,-999.0,77,-99.99,,,0.00,Acu-Link.com,2013-12-26 17:26:00,
2013-12-26 12:42:00,31.5,26.1,30.01,NW,315,2.2,-999.0,80,-99.99,,,0.00,Acu-Link.com,2013-12-26 17:42:00,
2013-12-26 12:57:00,32.4,26.6,30.00,SSE,157,6.3,-999.0,79,-99.99,,,0.00,Acu-Link.com,2013-12-26 17:57:00,
2013-12-26 13:12:00,32.0,26.5,29.99,East,90,0.0,-999.0,80,-99.99,,,0.00,Acu-Link.com,2013-12-26 18:12:00,
2013-12-26 13:27:00,32.0,26.8,29.99,SW,225,3.2,-999.0,81,-99.99,,,0.00,Acu-Link.com,2013-12-26 18:27:00,
2013-12-26 13:42:00,32.5,27.0,29.98,SE,135,2.7,-999.0,80,-99.99,,,0.00,Acu-Link.com,2013-12-26 18:42:00,
2013-12-26 13:57:00,32.7,27.5,29.98,SSW,202,1.7,-999.0,81,-99.99,,,0.00,Acu-Link.com,2013-12-26 18:57:00,
2013-12-26 14:12:00,33.1,27.6,29.97,NNE,22,3.7,-999.0,80,-99.99,,,0.00,Acu-Link.com,2013-12-26 19:12:00,
2013-12-26 14:27:00,34.3,28.8,29.97,SE,135,0.0,-999.0,80,-99.99,,,0.00,Acu-Link.com,2013-12-26 19:27:00,
2013-12-26 14:42:00,36.0,29.5,29.97,NNE,22,1.1,-999.0,77,-99.99,,,0.00,Acu-Link.com,2013-12-26 19:42:00,
2013-12-26 14:58:00,34.0,28.2,29.97,SW,225,2.7,-999.0,79,-99.99,,,0.00,Acu-Link.com,2013-12-26 19:58:00,
2013-12-26 15:13:00,32.7,27.8,29.97,SSW,202,1.1,-999.0,82,-99.99,,,0.00,Acu-Link.com,2013-12-26 20:13:00,
2013-12-26 15:28:00,32.7,27.8,29.97,SSE,157,0.0,-999.0,82,-99.99,,,0.00,Acu-Link.com,2013-12-26 20:28:00,
2013-12-26 15:43:00,32.7,27.8,29.98,ESE,112,0.0,-999.0,82,-99.99,,,0.00,Acu-Link.com,2013-12-26 20:43:00,
2013-12-26 15:58:00,32.9,27.1,29.98,West,270,2.2,-999.0,79,-99.99,,,0.00,Acu-Link.com,2013-12-26 20:58:00,
2013-12-26 16:13:00,33.3,27.2,30.00,ENE,67,2.7,-999.0,78,-99.99,,,0.00,Acu-Link.com,2013-12-26 21:13:00,
2013-12-26 16:28:00,32.5,25.5,30.01,WSW,247,0.0,-999.0,75,-99.99,,,0.00,Acu-Link.com,2013-12-26 21:28:00,
2013-12-26 16:43:00,32.4,24.4,30.01,East,90,2.7,-999.0,72,-99.99,,,0.00,Acu-Link.com,2013-12-26 21:43:00,
2013-12-26 16:58:00,32.4,24.1,30.02,WNW,292,2.7,-999.0,71,-99.99,,,0.00,Acu-Link.com,2013-12-26 21:58:00,
2013-12-26 17:14:00,32.2,23.9,30.03,SSE,157,0.0,-999.0,71,-99.99,,,0.00,Acu-Link.com,2013-12-26 22:14:00,
2013-12-26 17:29:00,31.6,24.9,30.04,NNE,22,1.7,-999.0,76,-99.99,,,0.00,Acu-Link.com,2013-12-26 22:29:00,
2013-12-26 17:44:00,31.5,24.5,30.05,NNE,22,1.7,-999.0,75,-99.99,,,0.00,Acu-Link.com,2013-12-26 22:44:00,
2013-12-26 17:59:00,30.9,23.3,30.06,NW,315,0.0,-999.0,73,-99.99,,,0.00,Acu-Link.com,2013-12-26 22:59:00,
2013-12-26 18:14:00,31.1,23.1,30.06,NNW,337,0.0,-999.0,72,-99.99,,,0.00,Acu-Link.com,2013-12-26 23:14:00,
2013-12-26 18:29:00,31.1,22.8,30.07,SE,135,1.7,-999.0,71,-99.99,,,0.00,Acu-Link.com,2013-12-26 23:29:00,
2013-12-26 18:44:00,30.9,21.9,30.08,SSE,157,2.2,-999.0,69,-99.99,,,0.00,Acu-Link.com,2013-12-26 23:44:00,
2013-12-26 18:59:00,30.4,21.8,30.09,North,0,2.7,-999.0,70,-99.99,,,0.00,Acu-Link.com,2013-12-26 23:59:00,
2013-12-26 19:14:00,29.5,21.6,30.10,West,270,1.7,-999.0,72,-99.99,,,0.00,Acu-Link.com,2013-12-27 00:14:00,
2013-12-26 19:29:00,28.8,20.6,30.10,West,270,2.2,-999.0,71,-99.99,,,0.00,Acu-Link.com,2013-12-27 00:29:00,
2013-12-26 19:45:00,27.7,22.1,30.10,NNE,22,0.0,-999.0,79,-99.99,,,0.00,Acu-Link.com,2013-12-27 00:45:00,
2013-12-26 20:00:00,27.1,22.1,30.11,ENE,67,0.0,-999.0,81,-99.99,,,0.00,Acu-Link.com,2013-12-27 01:00:00,
2013-12-26 20:15:00,27.1,21.8,30.11,ENE,67,0.0,-999.0,80,-99.99,,,0.00,Acu-Link.com,2013-12-27 01:15:00,
2013-12-26 20:30:00,27.1,22.3,30.11,NNE,22,0.0,-999.0,82,-99.99,,,0.00,Acu-Link.com,2013-12-27 01:30:00,
2013-12-26 20:45:00,26.8,22.1,30.11,ESE,112,0.0,-999.0,82,-99.99,,,0.00,Acu-Link.com,2013-12-27 01:45:00,
2013-12-26 21:00:00,26.8,22.3,30.11,East,90,0.0,-999.0,83,-99.99,,,0.00,Acu-Link.com,2013-12-27 02:00:00,
2013-12-26 21:15:00,26.6,22.1,30.12,SW,225,0.0,-999.0,83,-99.99,,,0.00,Acu-Link.com,2013-12-27 02:15:00,
2013-12-26 21:30:00,26.6,22.4,30.12,West,270,0.0,-999.0,84,-99.99,,,0.00,Acu-Link.com,2013-12-27 02:30:00,
2013-12-26 21:45:00,26.4,22.2,30.13,WSW,247,0.0,-999.0,84,-99.99,,,0.00,Acu-Link.com,2013-12-27 02:45:00,
2013-12-26 22:01:00,26.4,22.5,30.13,NE,45,0.0,-999.0,85,-99.99,,,0.00,Acu-Link.com,2013-12-27 03:01:00,
2013-12-26 22:16:00,26.4,22.5,30.14,WNW,292,0.0,-999.0,85,-99.99,,,0.00,Acu-Link.com,2013-12-27 03:16:00,
2013-12-26 22:31:00,26.4,22.5,30.14,ESE,112,0.0,-999.0,85,-99.99,,,0.00,Acu-Link.com,2013-12-27 03:31:00,
2013-12-26 22:46:00,26.4,22.5,30.14,East,90,0.0,-999.0,85,-99.99,,,0.00,Acu-Link.com,2013-12-27 03:46:00,
2013-12-26 23:01:00,26.4,22.5,30.15,SW,225,0.0,-999.0,85,-99.99,,,0.00,Acu-Link.com,2013-12-27 04:01:00,
2013-12-26 23:16:00,26.4,22.2,30.15,NE,45,0.0,-999.0,84,-99.99,,,0.00,Acu-Link.com,2013-12-27 04:16:00,
2013-12-26 23:31:00,26.4,22.2,30.15,SW,225,0.0,-999.0,84,-99.99,,,0.00,Acu-Link.com,2013-12-27 04:31:00,
2013-12-26 23:46:00,27.5,20.0,30.16,NW,315,3.2,-999.0,73,-99.99,,,0.00,Acu-Link.com,2013-12-27 04:46:00,